createdAt,value
2019-01-08T00:00:03.705Z,4.30
2019-01-08T00:02:33.051Z,4.40
2019-01-08T00:05:02.160Z,4.40
2019-01-08T00:07:31.249Z,4.40
2019-01-08T00:10:00.311Z,4.40
2019-01-08T00:12:29.456Z,4.40
2019-01-08T00:14:58.591Z,4.50
2019-01-08T00:17:27.712Z,4.50
2019-01-08T00:19:56.796Z,4.50
2019-01-08T00:22:25.889Z,4.50
2019-01-08T00:24:54.981Z,4.50
2019-01-08T00:27:24.067Z,4.50
2019-01-08T00:29:53.175Z,4.50
2019-01-08T00:32:22.283Z,4.50
2019-01-08T00:34:51.457Z,4.50
2019-01-08T00:37:20.647Z,4.50
2019-01-08T00:39:49.749Z,4.50
2019-01-08T00:42:18.851Z,4.50
2019-01-08T00:44:47.935Z,4.50
2019-01-08T00:47:17.098Z,4.60
2019-01-08T00:49:46.211Z,4.60
2019-01-08T00:52:15.291Z,4.60
2019-01-08T00:54:45.649Z,4.60
2019-01-08T00:57:14.859Z,4.60
2019-01-08T00:59:43.947Z,4.60
2019-01-08T01:02:13.023Z,4.60
2019-01-08T01:04:42.123Z,4.60
2019-01-08T01:07:11.297Z,4.60
2019-01-08T01:09:40.565Z,4.60
2019-01-08T01:12:09.678Z,4.60
2019-01-08T01:14:38.687Z,4.60
2019-01-08T01:17:07.767Z,4.60
2019-01-08T01:19:36.885Z,4.60
2019-01-08T01:22:05.957Z,4.60
2019-01-08T01:24:35.051Z,4.60
2019-01-08T01:27:04.161Z,4.60
2019-01-08T01:29:33.269Z,4.60
2019-01-08T01:32:02.363Z,4.60
2019-01-08T01:34:31.372Z,4.70
2019-01-08T01:37:00.409Z,4.70
2019-01-08T01:39:29.503Z,4.70
2019-01-08T01:41:58.615Z,4.70
2019-01-08T01:44:27.691Z,4.70
2019-01-08T01:46:56.887Z,4.70
2019-01-08T01:49:26.053Z,4.70
2019-01-08T01:51:55.230Z,4.70
2019-01-08T01:54:24.325Z,4.70
2019-01-08T01:56:53.411Z,4.70
2019-01-08T01:59:22.521Z,4.80
2019-01-08T02:01:51.644Z,4.80
2019-01-08T02:04:20.749Z,4.80
2019-01-08T02:06:49.828Z,4.80
2019-01-08T02:09:18.904Z,4.80
2019-01-08T02:11:48.005Z,4.90
2019-01-08T02:14:17.081Z,4.90
2019-01-08T02:16:46.195Z,4.90
2019-01-08T02:19:15.329Z,4.90
2019-01-08T02:21:44.432Z,4.90
2019-01-08T02:24:13.505Z,4.90
2019-01-08T02:26:42.616Z,4.90
2019-01-08T02:29:16.548Z,4.90
2019-01-08T02:31:42.456Z,5.00
2019-01-08T02:34:11.551Z,5.00
2019-01-08T02:36:40.639Z,5.00
2019-01-08T02:39:09.733Z,5.00
2019-01-08T02:41:38.895Z,5.10
2019-01-08T02:44:08.120Z,5.10
2019-01-08T02:46:37.418Z,5.10
2019-01-08T02:49:06.760Z,5.10
2019-01-08T02:51:35.864Z,5.10
2019-01-08T02:54:04.955Z,5.20
2019-01-08T02:56:34.075Z,5.20
2019-01-08T02:59:03.190Z,5.20
2019-01-08T03:01:32.261Z,5.20
2019-01-08T03:04:01.355Z,5.20
2019-01-08T03:06:30.457Z,5.20
2019-01-08T03:08:59.545Z,5.20
2019-01-08T03:11:28.696Z,5.20
2019-01-08T03:13:57.822Z,5.30
2019-01-08T03:16:26.899Z,5.30
2019-01-08T03:18:56.035Z,5.30
2019-01-08T03:21:25.141Z,5.30
2019-01-08T03:23:54.229Z,5.30
2019-01-08T03:26:23.397Z,5.30
2019-01-08T03:28:52.594Z,5.30
2019-01-08T03:31:21.769Z,5.40
2019-01-08T03:33:50.835Z,5.40
2019-01-08T03:36:19.825Z,5.40
2019-01-08T03:38:48.919Z,5.40
2019-01-08T03:41:17.994Z,5.40
2019-01-08T03:43:47.096Z,5.40
2019-01-08T03:46:16.181Z,5.50
2019-01-08T03:48:45.272Z,5.50
2019-01-08T03:51:14.351Z,5.50
2019-01-08T03:53:43.442Z,5.50
2019-01-08T03:56:12.590Z,5.50
2019-01-08T03:58:41.677Z,5.60
2019-01-08T04:01:10.719Z,5.60
2019-01-08T04:03:39.817Z,5.60
2019-01-08T04:06:08.911Z,5.60
2019-01-08T04:08:38.005Z,5.60
2019-01-08T04:11:07.103Z,5.60
2019-01-08T04:13:36.207Z,5.60
2019-01-08T04:16:05.324Z,5.60
2019-01-08T04:18:34.531Z,5.70
2019-01-08T04:21:03.686Z,5.70
2019-01-08T04:23:32.789Z,5.70
2019-01-08T04:26:01.882Z,5.70
2019-01-08T04:28:30.987Z,5.70
2019-01-08T04:31:00.101Z,5.70
2019-01-08T04:33:29.249Z,5.80
2019-01-08T04:35:58.326Z,5.80
2019-01-08T04:38:27.400Z,5.80
2019-01-08T04:40:56.469Z,5.80
2019-01-08T04:43:25.632Z,5.80
2019-01-08T04:45:54.719Z,5.80
2019-01-08T04:48:23.721Z,5.80
2019-01-08T04:50:52.822Z,5.80
2019-01-08T04:53:21.932Z,5.80
2019-01-08T04:55:51.019Z,5.80
2019-01-08T04:58:20.163Z,5.80
2019-01-08T05:00:49.296Z,5.80
2019-01-08T05:03:18.373Z,5.80
2019-01-08T05:05:47.468Z,5.80
2019-01-08T05:08:16.987Z,5.80
2019-01-08T05:10:46.151Z,5.80
2019-01-08T05:13:15.218Z,5.70
2019-01-08T05:15:44.421Z,5.70
2019-01-08T05:18:13.505Z,5.70
2019-01-08T05:20:42.564Z,5.70
2019-01-08T05:23:11.612Z,5.70
2019-01-08T05:25:40.683Z,5.70
2019-01-08T05:28:09.808Z,5.80
2019-01-08T05:30:38.962Z,5.80
2019-01-08T05:33:08.046Z,5.80
2019-01-08T05:35:37.140Z,5.80
2019-01-08T05:38:06.237Z,5.80
2019-01-08T05:40:35.333Z,5.80
2019-01-08T05:43:04.429Z,5.80
2019-01-08T05:45:33.523Z,5.80
2019-01-08T05:48:02.628Z,5.80
2019-01-08T05:50:31.719Z,5.80
2019-01-08T05:53:01.155Z,5.80
2019-01-08T05:55:30.269Z,5.80
2019-01-08T05:57:59.343Z,5.90
2019-01-08T06:00:28.514Z,5.90
2019-01-08T06:02:57.589Z,5.90
2019-01-08T06:05:26.678Z,5.90
2019-01-08T06:07:55.856Z,5.90
2019-01-08T06:10:24.951Z,5.90
2019-01-08T06:12:54.076Z,6.00
2019-01-08T06:15:23.280Z,6.00
2019-01-08T06:17:52.402Z,6.00
2019-01-08T06:20:21.492Z,6.00
2019-01-08T06:22:50.670Z,6.00
2019-01-08T06:25:19.751Z,6.00
2019-01-08T06:27:48.873Z,5.90
2019-01-08T06:30:24.729Z,5.80
2019-01-08T06:32:48.758Z,5.70
2019-01-08T06:35:17.836Z,5.70
2019-01-08T06:37:46.846Z,5.70
2019-01-08T06:40:15.953Z,5.60
2019-01-08T06:42:45.046Z,5.60
2019-01-08T06:45:14.160Z,5.50
2019-01-08T06:47:43.239Z,5.40
2019-01-08T06:50:12.323Z,5.40
2019-01-08T06:52:41.430Z,5.40
2019-01-08T06:55:10.595Z,5.40
2019-01-08T06:57:39.680Z,5.40
2019-01-08T07:00:10.070Z,5.40
2019-01-08T07:02:39.195Z,5.30
2019-01-08T07:05:08.362Z,5.30
2019-01-08T07:07:37.547Z,5.20
2019-01-08T07:10:07.212Z,5.10
2019-01-08T07:12:36.285Z,5.00
2019-01-08T07:15:05.485Z,5.00
2019-01-08T07:17:34.562Z,4.90
2019-01-08T07:20:03.732Z,4.90
2019-01-08T07:22:32.827Z,4.80
2019-01-08T07:25:01.932Z,4.70
2019-01-08T07:27:31.094Z,4.70
2019-01-08T07:30:00.194Z,4.60
2019-01-08T07:32:29.330Z,4.50
2019-01-08T07:34:58.402Z,4.50
2019-01-08T07:37:27.554Z,4.40
2019-01-08T07:39:56.624Z,4.40
2019-01-08T07:42:25.726Z,4.40
2019-01-08T07:44:54.833Z,4.40
2019-01-08T07:47:23.929Z,4.40
2019-01-08T07:49:53.013Z,4.30
2019-01-08T07:52:22.033Z,4.40
2019-01-08T07:54:51.119Z,4.30
2019-01-08T07:57:20.274Z,4.30
2019-01-08T07:59:49.382Z,4.30
2019-01-08T08:02:18.462Z,4.30
2019-01-08T08:04:48.093Z,4.30
2019-01-08T08:07:17.407Z,4.30
2019-01-08T08:09:46.499Z,4.30
2019-01-08T08:12:15.594Z,4.40
2019-01-08T08:14:44.808Z,4.40
2019-01-08T08:17:13.903Z,4.50
2019-01-08T08:19:43.014Z,4.50
2019-01-08T08:22:12.127Z,4.50
2019-01-08T08:24:41.201Z,4.60
2019-01-08T08:27:10.351Z,4.60
2019-01-08T08:29:39.460Z,4.70
2019-01-08T08:32:08.559Z,4.80
2019-01-08T08:34:37.640Z,4.80
2019-01-08T08:37:06.715Z,4.90
2019-01-08T08:39:35.802Z,4.90
2019-01-08T08:42:04.975Z,4.90
2019-01-08T08:44:34.151Z,5.00
2019-01-08T08:47:03.332Z,5.00
2019-01-08T08:49:32.453Z,5.10
2019-01-08T08:52:01.542Z,5.10
2019-01-08T08:54:30.639Z,5.10
2019-01-08T08:56:59.788Z,5.10
2019-01-08T08:59:28.935Z,5.10
2019-01-08T09:01:58.012Z,5.10
2019-01-08T09:04:27.086Z,5.10
2019-01-08T09:06:56.199Z,5.10
2019-01-08T09:09:25.291Z,5.10
2019-01-08T09:11:54.365Z,5.10
2019-01-08T09:14:23.471Z,5.20
2019-01-08T09:16:52.499Z,5.20
2019-01-08T09:19:21.605Z,5.20
2019-01-08T09:21:50.775Z,5.20
2019-01-08T09:24:19.884Z,5.20
2019-01-08T09:26:48.980Z,5.20
2019-01-08T09:29:18.165Z,5.10
2019-01-08T09:31:47.271Z,5.10
2019-01-08T09:34:16.457Z,5.10
2019-01-08T09:36:45.570Z,5.10
2019-01-08T09:39:14.621Z,5.20
2019-01-08T09:41:43.707Z,5.20
2019-01-08T09:44:12.859Z,5.20
2019-01-08T09:46:42.361Z,5.20
2019-01-08T09:49:11.461Z,5.10
2019-01-08T09:51:40.562Z,5.10
2019-01-08T09:54:09.657Z,5.10
2019-01-08T09:56:38.755Z,5.10
2019-01-08T09:59:07.867Z,5.20
2019-01-08T10:01:36.989Z,5.30
2019-01-08T10:04:06.079Z,5.50
2019-01-08T10:06:35.161Z,5.70
2019-01-08T10:09:04.986Z,5.80
2019-01-08T10:11:34.075Z,5.80
2019-01-08T10:14:03.255Z,5.80
2019-01-08T10:16:32.353Z,5.80
2019-01-08T10:19:01.425Z,5.80
2019-01-08T10:21:30.497Z,6.00
2019-01-08T10:23:59.620Z,6.00
2019-01-08T10:26:28.707Z,6.10
2019-01-08T10:28:57.826Z,6.10
2019-01-08T10:31:32.416Z,6.10
2019-01-08T10:33:57.728Z,6.10
2019-01-08T10:36:45.980Z,6.20
2019-01-08T10:39:15.212Z,6.10
2019-01-08T10:41:44.299Z,6.20
2019-01-08T10:44:13.403Z,6.20
2019-01-08T10:46:42.495Z,6.10
2019-01-08T10:49:11.628Z,6.10
2019-01-08T10:51:40.816Z,6.10
2019-01-08T10:54:09.934Z,6.20
2019-01-08T10:56:39.045Z,6.10
2019-01-08T10:59:08.136Z,6.20
2019-01-08T11:01:40.588Z,6.20
2019-01-08T11:04:08.046Z,6.30
2019-01-08T11:06:37.158Z,6.30
2019-01-08T11:09:07.445Z,6.20
2019-01-08T11:11:36.753Z,6.20
2019-01-08T11:14:05.845Z,6.20
2019-01-08T11:16:35.015Z,6.30
2019-01-08T11:19:04.104Z,6.30
2019-01-08T11:21:33.199Z,6.30
2019-01-08T11:24:02.415Z,6.30
2019-01-08T11:26:31.507Z,6.30
2019-01-08T11:29:00.705Z,6.30
2019-01-08T11:31:29.799Z,6.30
2019-01-08T11:33:58.893Z,6.30
2019-01-08T11:36:28.001Z,6.10
2019-01-08T11:38:57.113Z,6.10
2019-01-08T11:41:26.199Z,6.00
2019-01-08T11:43:55.326Z,5.90
2019-01-08T11:46:24.401Z,5.80
2019-01-08T11:48:53.815Z,5.80
2019-01-08T11:51:22.917Z,5.80
2019-01-08T11:53:52.008Z,5.80
2019-01-08T11:56:21.154Z,5.80
2019-01-08T11:58:50.235Z,5.80
2019-01-08T12:01:19.715Z,5.80
2019-01-08T12:03:48.812Z,5.80
2019-01-08T12:06:17.888Z,5.70
2019-01-08T12:08:46.995Z,5.70
2019-01-08T12:11:16.083Z,5.60
2019-01-08T12:13:48.631Z,5.60
2019-01-08T12:16:17.708Z,5.60
2019-01-08T12:18:47.085Z,5.60
2019-01-08T12:21:16.293Z,5.60
2019-01-08T12:23:45.369Z,5.60
2019-01-08T12:26:14.543Z,5.60
2019-01-08T12:28:43.717Z,5.50
2019-01-08T12:31:12.891Z,5.50
2019-01-08T12:33:42.088Z,5.50
2019-01-08T12:36:11.196Z,5.60
2019-01-08T12:38:40.336Z,5.60
2019-01-08T12:41:09.464Z,5.50
2019-01-08T12:43:38.610Z,5.50
2019-01-08T12:46:07.703Z,5.60
2019-01-08T12:48:36.881Z,5.60
2019-01-08T12:51:06.004Z,5.60
2019-01-08T12:53:35.110Z,5.60
2019-01-08T12:56:04.234Z,5.70
2019-01-08T12:58:33.335Z,5.70
2019-01-08T13:01:02.517Z,5.70
2019-01-08T13:03:31.631Z,5.70
2019-01-08T13:06:00.661Z,5.70
2019-01-08T13:08:29.778Z,5.80
2019-01-08T13:10:58.903Z,5.80
2019-01-08T13:13:28.003Z,5.80
2019-01-08T13:15:57.107Z,5.80
2019-01-08T13:18:26.207Z,5.80
2019-01-08T13:20:55.407Z,5.80
2019-01-08T13:23:24.490Z,5.80
2019-01-08T13:25:53.603Z,5.90
2019-01-08T13:28:23.584Z,5.90
2019-01-08T13:30:52.844Z,6.00
2019-01-08T13:33:21.951Z,6.00
2019-01-08T13:35:51.054Z,6.00
2019-01-08T13:38:20.299Z,6.00
2019-01-08T13:40:49.384Z,6.00
2019-01-08T13:43:18.475Z,6.00
2019-01-08T13:45:47.592Z,6.00
2019-01-08T13:48:16.774Z,6.00
2019-01-08T13:50:45.857Z,6.00
2019-01-08T13:53:15.041Z,6.10
2019-01-08T13:55:44.130Z,6.10
2019-01-08T13:58:13.163Z,6.10
2019-01-08T14:00:42.288Z,6.10
2019-01-08T14:03:11.399Z,6.10
2019-01-08T14:05:40.484Z,6.00
2019-01-08T14:08:09.651Z,6.00
2019-01-08T14:10:38.778Z,6.00
2019-01-08T14:13:07.880Z,6.00
2019-01-08T14:15:37.069Z,6.00
2019-01-08T14:18:06.197Z,6.00
2019-01-08T14:20:35.287Z,6.00
2019-01-08T14:23:04.411Z,6.10
2019-01-08T14:25:33.528Z,6.10
2019-01-08T14:28:02.649Z,6.10
2019-01-08T14:30:31.740Z,6.00
2019-01-08T14:33:00.922Z,6.00
2019-01-08T14:35:30.008Z,6.00
2019-01-08T14:37:59.066Z,5.90
2019-01-08T14:40:28.166Z,5.90
2019-01-08T14:42:57.355Z,5.80
2019-01-08T14:45:26.482Z,5.70
2019-01-08T14:47:55.591Z,5.70
2019-01-08T14:50:24.706Z,5.60
2019-01-08T14:52:53.808Z,5.60
2019-01-08T14:55:22.956Z,5.60
2019-01-08T14:57:52.072Z,5.50
2019-01-08T15:00:21.170Z,5.50
2019-01-08T15:02:50.267Z,5.50
2019-01-08T15:05:19.398Z,5.40
2019-01-08T15:07:48.502Z,5.40
2019-01-08T15:10:17.631Z,5.30
2019-01-08T15:12:46.758Z,5.30
2019-01-08T15:15:15.976Z,5.30
2019-01-08T15:17:45.106Z,5.30
2019-01-08T15:20:14.193Z,5.20
2019-01-08T15:22:43.295Z,5.30
2019-01-08T15:25:12.402Z,5.20
2019-01-08T15:27:41.488Z,5.20
2019-01-08T15:30:11.189Z,5.30
2019-01-08T15:32:40.287Z,5.20
2019-01-08T15:35:09.483Z,5.20
2019-01-08T15:37:38.560Z,5.20
2019-01-08T15:40:07.661Z,5.20
2019-01-08T15:42:36.761Z,5.20
2019-01-08T15:45:05.946Z,5.20
2019-01-08T15:47:35.056Z,5.20
2019-01-08T15:50:04.219Z,5.20
2019-01-08T15:52:33.323Z,5.20
2019-01-08T15:55:02.549Z,5.20
2019-01-08T15:57:31.632Z,5.20
2019-01-08T16:00:00.784Z,5.20
2019-01-08T16:02:29.922Z,5.20
2019-01-08T16:04:59.070Z,5.20
2019-01-08T16:07:28.155Z,5.20
2019-01-08T16:09:57.237Z,5.20
2019-01-08T16:12:26.370Z,5.20
2019-01-08T16:14:55.462Z,5.30
2019-01-08T16:17:24.558Z,5.20
2019-01-08T16:19:53.730Z,5.20
2019-01-08T16:22:22.880Z,5.20
2019-01-08T16:24:51.976Z,5.20
2019-01-08T16:27:40.268Z,5.20
2019-01-08T16:30:09.708Z,5.10
2019-01-08T16:32:38.882Z,5.10
2019-01-08T16:35:08.120Z,5.00
2019-01-08T16:37:37.280Z,5.00
2019-01-08T16:40:07.468Z,5.00
2019-01-08T16:42:36.680Z,5.00
2019-01-08T16:45:06.125Z,4.90
2019-01-08T16:47:35.280Z,4.90
2019-01-08T16:50:04.432Z,4.90
2019-01-08T16:52:33.605Z,4.90
2019-01-08T16:55:02.739Z,4.90
2019-01-08T16:57:31.996Z,5.00
2019-01-08T17:00:01.124Z,5.00
2019-01-08T17:02:30.361Z,5.00
2019-01-08T17:04:59.549Z,5.00
2019-01-08T17:07:28.698Z,4.90
2019-01-08T17:09:57.919Z,5.00
2019-01-08T17:12:27.062Z,5.00
2019-01-08T17:14:56.196Z,5.00
2019-01-08T17:17:25.318Z,5.00
2019-01-08T17:19:54.507Z,5.00
2019-01-08T17:22:23.631Z,5.00
2019-01-08T17:24:52.854Z,5.00
2019-01-08T17:27:22.075Z,5.10
2019-01-08T17:29:51.270Z,5.00
2019-01-08T17:32:20.422Z,5.00
2019-01-08T17:34:49.645Z,5.00
2019-01-08T17:37:18.836Z,5.00
2019-01-08T17:39:47.943Z,5.00
2019-01-08T17:42:17.146Z,5.00
2019-01-08T17:44:46.375Z,4.90
2019-01-08T17:47:15.507Z,4.90
2019-01-08T17:49:44.765Z,4.90
2019-01-08T17:52:13.895Z,4.90
2019-01-08T17:54:43.111Z,4.90
2019-01-08T17:57:12.394Z,4.80
2019-01-08T17:59:41.963Z,4.80
2019-01-08T18:02:13.676Z,4.80
2019-01-08T18:04:42.815Z,4.80
2019-01-08T18:07:12.019Z,4.90
2019-01-08T18:09:41.268Z,4.90
2019-01-08T18:12:10.571Z,4.90
2019-01-08T18:14:39.788Z,4.90
2019-01-08T18:17:09.571Z,4.90
2019-01-08T18:19:38.820Z,4.90
2019-01-08T18:22:08.326Z,4.90
2019-01-08T18:24:37.553Z,4.90
2019-01-08T18:27:06.712Z,4.80
2019-01-08T18:29:35.866Z,4.70
2019-01-08T18:32:05.117Z,4.70
2019-01-08T18:34:34.591Z,4.70
2019-01-08T18:37:03.986Z,4.70
2019-01-08T18:39:35.445Z,4.70
2019-01-08T18:42:06.086Z,4.70
2019-01-08T18:44:35.351Z,4.70
2019-01-08T18:47:04.555Z,4.70
2019-01-08T18:49:34.684Z,4.70
2019-01-08T18:52:03.918Z,4.80
2019-01-08T18:54:34.359Z,4.80
2019-01-08T18:57:03.546Z,4.70
2019-01-08T18:59:34.253Z,4.70
2019-01-08T19:02:03.506Z,4.70
2019-01-08T19:04:33.005Z,4.70
2019-01-08T19:07:02.293Z,4.70
2019-01-08T19:09:39.231Z,4.70
2019-01-08T19:12:20.064Z,4.60
2019-01-08T19:14:49.281Z,4.60
2019-01-08T19:17:18.548Z,4.70
2019-01-08T19:19:47.851Z,4.60
2019-01-08T19:22:17.161Z,4.70
2019-01-08T19:24:46.474Z,4.70
2019-01-08T19:27:18.100Z,4.70
2019-01-08T19:29:50.268Z,4.70
2019-01-08T19:32:19.560Z,4.80
2019-01-08T19:34:49.198Z,4.80
2019-01-08T19:37:18.795Z,4.80
2019-01-08T19:39:50.687Z,4.70
2019-01-08T19:42:19.973Z,4.60
2019-01-08T19:44:50.158Z,4.60
2019-01-08T19:47:19.467Z,4.50
2019-01-08T19:49:48.799Z,4.50
2019-01-08T19:52:18.087Z,4.40
2019-01-08T19:54:48.683Z,4.50
2019-01-08T19:57:17.952Z,4.50
2019-01-08T19:59:47.223Z,4.50
2019-01-08T20:02:19.904Z,4.50
2019-01-08T20:04:49.559Z,4.50
2019-01-08T20:07:18.911Z,4.40
2019-01-08T20:09:48.525Z,4.40
2019-01-08T20:12:17.810Z,4.40
2019-01-08T20:14:47.134Z,4.40
2019-01-08T20:17:16.543Z,4.40
2019-01-08T20:19:45.974Z,4.30
2019-01-08T20:22:17.188Z,4.30
2019-01-08T20:24:47.658Z,4.40
2019-01-08T20:27:19.060Z,4.30
2019-01-08T20:29:48.370Z,4.30
2019-01-08T20:32:18.980Z,4.30
2019-01-08T20:34:48.670Z,4.30
2019-01-08T20:37:18.369Z,4.30
2019-01-08T20:39:48.634Z,4.30
2019-01-08T20:42:19.084Z,4.30
2019-01-08T20:44:48.364Z,4.30
2019-01-08T20:47:18.124Z,4.20
2019-01-08T20:49:48.309Z,4.20
2019-01-08T20:52:17.886Z,4.10
2019-01-08T20:54:49.259Z,4.10
2019-01-08T20:57:20.581Z,4.10
2019-01-08T20:59:49.698Z,4.10
2019-01-08T21:02:21.831Z,4.10
2019-01-08T21:04:52.531Z,4.10
2019-01-08T21:07:22.672Z,4.20
2019-01-08T21:09:52.397Z,4.10
2019-01-08T21:12:22.250Z,4.10
2019-01-08T21:14:51.567Z,4.10
2019-01-08T21:17:21.732Z,4.00
2019-01-08T21:19:52.270Z,4.00
2019-01-08T21:22:22.954Z,4.00
2019-01-08T21:24:52.842Z,3.90
2019-01-08T21:27:23.700Z,3.90
2019-01-08T21:29:53.278Z,4.00
2019-01-08T21:32:22.560Z,3.90
2019-01-08T21:34:52.228Z,3.90
2019-01-08T21:37:21.531Z,3.90
2019-01-08T21:39:50.832Z,3.80
2019-01-08T21:42:20.483Z,3.80
2019-01-08T21:44:50.582Z,3.80
2019-01-08T21:47:20.133Z,3.80
2019-01-08T21:49:49.452Z,3.90
2019-01-08T21:52:18.574Z,3.90
2019-01-08T21:54:47.775Z,3.90
2019-01-08T21:57:17.016Z,3.90
2019-01-08T21:59:47.715Z,3.90
2019-01-08T22:02:16.853Z,3.90
2019-01-08T22:04:53.053Z,3.90
2019-01-08T22:07:16.900Z,3.90
2019-01-08T22:09:46.207Z,3.90
2019-01-08T22:12:15.315Z,3.80
2019-01-08T22:14:44.481Z,3.80
2019-01-08T22:17:14.718Z,3.80
2019-01-08T22:19:43.944Z,3.70
2019-01-08T22:22:13.145Z,3.70
2019-01-08T22:24:42.265Z,3.70
2019-01-08T22:27:11.495Z,3.70
2019-01-08T22:29:40.615Z,3.70
2019-01-08T22:32:09.850Z,3.70
2019-01-08T22:34:39.044Z,3.70
2019-01-08T22:37:08.166Z,3.70
2019-01-08T22:39:37.294Z,3.70
2019-01-08T22:42:06.376Z,3.70
2019-01-08T22:44:35.474Z,3.60
2019-01-08T22:47:04.646Z,3.60
2019-01-08T22:49:33.740Z,3.50
2019-01-08T22:52:02.831Z,3.60
2019-01-08T22:54:31.950Z,3.60
2019-01-08T22:57:01.087Z,3.60
2019-01-08T22:59:31.802Z,3.60
2019-01-08T23:02:01.379Z,3.70
2019-01-08T23:04:30.530Z,3.70
2019-01-08T23:06:59.656Z,3.70
2019-01-08T23:09:30.088Z,3.70
2019-01-08T23:11:59.267Z,3.70
2019-01-08T23:14:28.386Z,3.70
2019-01-08T23:16:57.494Z,3.70
2019-01-08T23:19:26.609Z,3.70
2019-01-08T23:21:55.678Z,3.70
2019-01-08T23:24:24.775Z,3.70
2019-01-08T23:26:53.948Z,3.70
2019-01-08T23:29:23.056Z,3.70
2019-01-08T23:31:52.218Z,3.70
2019-01-08T23:34:21.337Z,3.60
2019-01-08T23:36:50.520Z,3.60
2019-01-08T23:39:19.599Z,3.60
2019-01-08T23:41:48.712Z,3.60
2019-01-08T23:44:17.794Z,3.60
2019-01-08T23:46:46.969Z,3.50
2019-01-08T23:49:16.106Z,3.40
2019-01-08T23:51:45.188Z,3.40
2019-01-08T23:54:16.199Z,3.30
2019-01-08T23:56:46.401Z,3.30
2019-01-08T23:59:15.565Z,3.30
